createdAt,value
2019-03-11T00:02:45.866Z,1.23
2019-03-11T00:05:51.152Z,1.23
2019-03-11T00:08:56.445Z,1.31
2019-03-11T00:12:01.831Z,1.23
2019-03-11T00:15:07.462Z,1.22
2019-03-11T00:18:12.719Z,1.25
2019-03-11T00:21:17.965Z,1.21
2019-03-11T00:24:23.214Z,1.23
2019-03-11T00:27:28.531Z,1.18
2019-03-11T00:30:35.315Z,1.11
2019-03-11T00:33:40.638Z,1.01
2019-03-11T00:36:48.168Z,1.10
2019-03-11T00:39:53.449Z,1.11
2019-03-11T00:42:58.730Z,1.05
2019-03-11T00:46:04.009Z,1.18
2019-03-11T00:49:09.300Z,1.25
2019-03-11T00:52:14.613Z,1.07
2019-03-11T00:55:19.890Z,1.14
2019-03-11T00:58:25.241Z,1.10
2019-03-11T01:01:30.791Z,1.08
2019-03-11T01:04:36.104Z,1.19
2019-03-11T01:07:41.329Z,1.18
2019-03-11T01:10:46.622Z,1.19
2019-03-11T01:13:51.905Z,1.17
2019-03-11T01:16:57.228Z,1.22
2019-03-11T01:20:02.494Z,1.17
2019-03-11T01:23:07.745Z,1.12
2019-03-11T01:26:12.985Z,1.09
2019-03-11T01:29:19.233Z,1.18
2019-03-11T01:32:24.554Z,1.02
2019-03-11T01:35:31.076Z,1.06
2019-03-11T01:38:36.406Z,1.12
2019-03-11T01:41:41.723Z,1.19
2019-03-11T01:44:46.977Z,1.11
2019-03-11T01:47:52.215Z,1.25
2019-03-11T01:50:57.483Z,1.28
2019-03-11T01:54:02.730Z,1.26
2019-03-11T01:57:08.025Z,1.20
2019-03-11T02:00:14.294Z,1.45
2019-03-11T02:03:19.569Z,1.40
2019-03-11T02:06:25.147Z,1.42
2019-03-11T02:09:30.388Z,1.57
2019-03-11T02:12:35.658Z,1.55
2019-03-11T02:15:40.933Z,1.61
2019-03-11T02:18:46.199Z,1.70
2019-03-11T02:21:51.468Z,1.81
2019-03-11T02:24:56.714Z,1.85
2019-03-11T02:28:02.006Z,1.84
2019-03-11T02:31:07.279Z,1.85
2019-03-11T02:34:12.596Z,1.78
2019-03-11T02:37:17.965Z,1.73
2019-03-11T02:40:23.296Z,1.69
2019-03-11T02:43:28.636Z,1.58
2019-03-11T02:46:35.410Z,1.45
2019-03-11T02:49:43.737Z,1.45
2019-03-11T02:52:47.708Z,1.43
2019-03-11T02:55:52.958Z,1.40
2019-03-11T02:58:58.235Z,1.20
2019-03-11T03:02:16.854Z,1.09
2019-03-11T03:05:50.129Z,0.82
2019-03-11T03:08:55.432Z,0.76
2019-03-11T03:12:00.752Z,0.71
2019-03-11T03:15:06.612Z,0.74
2019-03-11T03:18:11.890Z,0.69
2019-03-11T03:21:17.177Z,0.66
2019-03-11T03:24:22.540Z,0.66
2019-03-11T03:27:27.810Z,0.64
2019-03-11T03:30:33.125Z,0.61
2019-03-11T03:33:38.456Z,0.65
2019-03-11T03:36:43.800Z,0.61
2019-03-11T03:39:49.108Z,0.57
2019-03-11T03:42:56.265Z,0.54
2019-03-11T03:46:17.327Z,0.49
2019-03-11T03:49:10.554Z,0.44
2019-03-11T03:52:15.809Z,0.46
2019-03-11T03:55:21.586Z,0.47
2019-03-11T03:58:26.899Z,0.52
2019-03-11T04:01:38.335Z,0.55
2019-03-11T04:04:43.686Z,0.54
2019-03-11T04:07:48.917Z,0.59
2019-03-11T04:10:54.181Z,0.61
2019-03-11T04:13:59.509Z,0.59
2019-03-11T04:17:04.753Z,0.62
2019-03-11T04:20:12.728Z,0.54
2019-03-11T04:23:18.092Z,0.53
2019-03-11T04:26:28.283Z,0.53
2019-03-11T04:29:33.659Z,0.60
2019-03-11T04:32:38.886Z,0.67
2019-03-11T04:35:44.183Z,0.72
2019-03-11T04:38:49.414Z,0.75
2019-03-11T04:41:54.717Z,0.79
2019-03-11T04:44:59.998Z,0.75
2019-03-11T04:48:05.428Z,0.80
2019-03-11T04:51:10.741Z,0.86
2019-03-11T04:54:15.961Z,0.81
2019-03-11T04:57:23.464Z,0.89
2019-03-11T05:00:29.183Z,0.93
2019-03-11T05:03:34.551Z,0.88
2019-03-11T05:06:41.055Z,0.89
2019-03-11T05:09:46.370Z,0.91
2019-03-11T05:12:51.656Z,0.92
2019-03-11T05:15:57.038Z,0.94
2019-03-11T05:19:03.275Z,0.98
2019-03-11T05:22:08.613Z,1.02
2019-03-11T05:25:14.070Z,1.01
2019-03-11T05:28:19.429Z,0.94
2019-03-11T05:31:24.648Z,0.98
2019-03-11T05:34:30.149Z,0.96
2019-03-11T05:37:35.589Z,1.07
2019-03-11T05:40:40.960Z,1.09
2019-03-11T05:43:46.392Z,1.07
2019-03-11T05:46:51.754Z,0.96
2019-03-11T05:49:57.068Z,1.11
2019-03-11T05:53:06.349Z,1.09
2019-03-11T05:56:11.664Z,1.12
2019-03-11T05:59:17.067Z,1.16
2019-03-11T06:02:22.478Z,1.21
2019-03-11T06:05:27.758Z,1.23
2019-03-11T06:08:33.248Z,1.28
2019-03-11T06:11:38.545Z,1.29
2019-03-11T06:14:43.839Z,1.29
2019-03-11T06:17:49.285Z,1.35
2019-03-11T06:21:13.635Z,1.39
2019-03-11T06:24:19.008Z,1.37
2019-03-11T06:27:24.392Z,1.38
2019-03-11T06:30:30.804Z,1.36
2019-03-11T06:33:37.087Z,1.34
2019-03-11T06:36:42.334Z,1.37
2019-03-11T06:39:47.696Z,1.35
2019-03-11T06:42:52.958Z,1.36
2019-03-11T06:45:58.213Z,1.40
2019-03-11T06:49:03.510Z,1.45
2019-03-11T06:52:09.669Z,1.54
2019-03-11T06:55:15.027Z,1.61
2019-03-11T06:58:21.848Z,1.62
2019-03-11T07:01:28.219Z,1.75
2019-03-11T07:04:33.487Z,1.82
2019-03-11T07:07:38.709Z,1.84
2019-03-11T07:10:43.958Z,1.71
2019-03-11T07:13:49.172Z,1.85
2019-03-11T07:16:54.464Z,1.87
2019-03-11T07:19:59.779Z,1.72
2019-03-11T07:23:05.049Z,1.65
2019-03-11T07:26:10.334Z,1.65
2019-03-11T07:29:15.589Z,1.64
2019-03-11T07:32:20.863Z,1.66
2019-03-11T07:35:26.150Z,1.69
2019-03-11T07:38:31.434Z,1.82
2019-03-11T07:41:36.725Z,1.72
2019-03-11T07:44:41.976Z,1.80
2019-03-11T07:47:47.253Z,1.87
2019-03-11T07:50:52.648Z,1.87
2019-03-11T07:53:57.938Z,1.92
2019-03-11T07:57:03.306Z,1.98
2019-03-11T08:00:10.251Z,1.97
2019-03-11T08:03:15.489Z,2.00
2019-03-11T08:06:21.763Z,1.96
2019-03-11T08:09:37.247Z,2.21
2019-03-11T08:12:33.986Z,2.49
2019-03-11T08:15:39.279Z,2.55
2019-03-11T08:18:44.647Z,2.86
2019-03-11T08:21:49.865Z,3.34
2019-03-11T08:24:55.173Z,3.43
2019-03-11T08:28:01.464Z,3.12
2019-03-11T08:31:07.777Z,3.03
2019-03-11T08:34:13.084Z,2.70
2019-03-11T08:37:18.334Z,2.56
2019-03-11T08:40:23.669Z,2.30
2019-03-11T08:43:29.017Z,1.83
2019-03-11T08:46:34.239Z,1.58
2019-03-11T08:49:39.547Z,1.36
2019-03-11T08:52:44.805Z,1.26
2019-03-11T08:55:50.100Z,1.36
2019-03-11T08:59:00.252Z,1.18
2019-03-11T09:02:02.544Z,1.05
2019-03-11T09:05:10.722Z,0.91
2019-03-11T09:08:16.062Z,0.77
2019-03-11T09:11:21.397Z,0.69
2019-03-11T09:14:26.656Z,0.75
2019-03-11T09:17:31.953Z,0.76
2019-03-11T09:20:37.296Z,0.82
2019-03-11T09:23:42.587Z,0.97
2019-03-11T09:26:47.841Z,1.29
2019-03-11T09:29:53.211Z,1.54
2019-03-11T09:32:58.583Z,1.41
2019-03-11T09:36:03.834Z,1.40
2019-03-11T09:39:12.155Z,1.48
2019-03-11T09:42:17.461Z,1.58
2019-03-11T09:45:24.253Z,1.73
2019-03-11T09:48:29.972Z,1.90
2019-03-11T09:51:35.361Z,2.07
2019-03-11T09:54:40.597Z,2.17
2019-03-11T09:57:47.043Z,2.41
2019-03-11T10:00:52.354Z,2.36
2019-03-11T10:03:57.653Z,2.21
2019-03-11T10:07:03.017Z,2.15
2019-03-11T10:10:09.978Z,2.22
2019-03-11T10:13:15.303Z,2.29
2019-03-11T10:16:23.333Z,2.61
2019-03-11T10:19:28.693Z,2.26
2019-03-11T10:22:33.944Z,2.36
2019-03-11T10:25:39.248Z,2.70
2019-03-11T10:28:44.527Z,3.23
2019-03-11T10:31:49.838Z,3.43
2019-03-11T10:34:55.131Z,3.44
2019-03-11T10:38:00.414Z,3.38
2019-03-11T10:41:05.782Z,3.30
2019-03-11T10:44:14.686Z,3.45
2019-03-11T10:47:19.676Z,3.61
2019-03-11T10:50:24.967Z,3.75
2019-03-11T10:53:30.207Z,3.80
2019-03-11T10:56:35.517Z,4.00
2019-03-11T10:59:40.847Z,4.26
2019-03-11T11:02:46.157Z,4.19
2019-03-11T11:05:51.452Z,4.33
2019-03-11T11:08:56.849Z,4.26
2019-03-11T11:12:02.127Z,4.17
2019-03-11T11:15:10.483Z,4.53
2019-03-11T11:18:15.761Z,4.42
2019-03-11T11:21:21.161Z,4.60
2019-03-11T11:24:26.402Z,4.54
2019-03-11T11:27:32.244Z,4.56
2019-03-11T11:30:37.568Z,4.64
2019-03-11T11:33:42.846Z,4.57
2019-03-11T11:36:50.379Z,4.37
2019-03-11T11:39:55.687Z,4.69
2019-03-11T11:43:01.000Z,4.33
2019-03-11T11:46:06.293Z,4.05
2019-03-11T11:49:13.218Z,3.88
2019-03-11T11:52:18.491Z,3.63
2019-03-11T11:55:24.002Z,3.48
2019-03-11T11:58:29.367Z,3.52
2019-03-11T12:01:34.635Z,3.40
2019-03-11T12:04:40.145Z,3.25
2019-03-11T12:07:45.723Z,3.14
2019-03-11T12:10:51.003Z,3.00
2019-03-11T12:13:56.415Z,2.86
2019-03-11T12:17:02.588Z,2.90
2019-03-11T12:20:09.711Z,2.89
2019-03-11T12:23:14.997Z,2.98
2019-03-11T12:26:20.248Z,3.13
2019-03-11T12:29:28.319Z,3.17
2019-03-11T12:32:33.649Z,3.30
2019-03-11T12:35:38.980Z,3.54
2019-03-11T12:38:44.343Z,3.68
2019-03-11T12:41:49.629Z,3.90
2019-03-11T12:44:54.830Z,4.03
2019-03-11T12:48:00.263Z,4.35
2019-03-11T12:51:05.616Z,4.16
2019-03-11T12:54:13.167Z,4.48
2019-03-11T12:57:18.468Z,4.59
2019-03-11T13:00:23.843Z,4.73
2019-03-11T13:03:29.106Z,5.02
2019-03-11T13:06:34.406Z,5.21
2019-03-11T13:09:39.691Z,5.34
2019-03-11T13:12:45.031Z,4.97
2019-03-11T13:15:50.345Z,5.24
2019-03-11T13:18:58.041Z,4.87
2019-03-11T13:22:04.647Z,4.88
2019-03-11T13:25:09.994Z,4.73
2019-03-11T13:28:15.274Z,4.73
2019-03-11T13:31:20.503Z,4.78
2019-03-11T13:34:25.806Z,4.89
2019-03-11T13:37:31.105Z,5.00
2019-03-11T13:40:36.375Z,5.18
2019-03-11T13:43:41.727Z,5.50
2019-03-11T13:46:47.035Z,5.47
2019-03-11T13:49:52.325Z,5.48
2019-03-11T13:52:58.581Z,5.78
2019-03-11T13:56:03.870Z,5.83
2019-03-11T13:59:09.127Z,5.91
2019-03-11T14:02:14.425Z,5.76
2019-03-11T14:05:19.784Z,5.90
2019-03-11T14:08:25.122Z,5.75
2019-03-11T14:11:30.423Z,5.81
2019-03-11T14:14:35.696Z,5.71
2019-03-11T14:17:41.027Z,5.78
2019-03-11T14:20:46.350Z,5.57
2019-03-11T14:23:51.648Z,5.33
2019-03-11T14:26:58.552Z,5.17
2019-03-11T14:30:05.173Z,4.94
2019-03-11T14:33:10.561Z,4.83
2019-03-11T14:36:15.810Z,5.02
2019-03-11T14:39:21.259Z,5.20
2019-03-11T14:42:26.538Z,5.33
2019-03-11T14:45:31.833Z,5.03
2019-03-11T14:48:37.150Z,4.80
2019-03-11T14:51:44.061Z,4.74
2019-03-11T14:54:49.346Z,4.67
2019-03-11T14:57:54.675Z,4.77
2019-03-11T15:01:00.415Z,4.90
2019-03-11T15:04:05.719Z,4.87
2019-03-11T15:07:11.070Z,4.74
2019-03-11T15:10:16.950Z,4.81
2019-03-11T15:13:22.385Z,4.59
2019-03-11T15:16:27.751Z,4.73
2019-03-11T15:19:33.071Z,4.63
2019-03-11T15:22:38.424Z,4.58
2019-03-11T15:25:46.893Z,4.34
2019-03-11T15:28:52.257Z,4.33
2019-03-11T15:31:57.842Z,4.23
2019-03-11T15:35:03.159Z,4.17
2019-03-11T15:38:08.551Z,4.27
2019-03-11T15:41:13.841Z,4.29
2019-03-11T15:44:19.209Z,4.20
2019-03-11T15:47:24.605Z,4.12
2019-03-11T15:50:30.214Z,4.13
2019-03-11T15:53:35.503Z,4.26
2019-03-11T15:56:40.807Z,4.14
2019-03-11T15:59:46.050Z,4.17
2019-03-11T16:02:51.405Z,4.22
2019-03-11T16:05:56.716Z,4.23
2019-03-11T16:09:02.250Z,4.26
2019-03-11T16:12:09.170Z,4.26
2019-03-11T16:15:15.162Z,4.38
2019-03-11T16:18:22.525Z,4.34
2019-03-11T16:21:27.495Z,4.24
2019-03-11T16:24:33.739Z,4.14
2019-03-11T16:27:38.994Z,4.13
2019-03-11T16:30:44.241Z,4.04
2019-03-11T16:33:49.561Z,3.95
2019-03-11T16:36:54.868Z,3.89
2019-03-11T16:40:00.357Z,3.87
2019-03-11T16:43:06.675Z,3.93
2019-03-11T16:46:11.951Z,3.85
2019-03-11T16:49:17.254Z,3.91
2019-03-11T16:52:22.535Z,3.97
2019-03-11T16:55:30.096Z,3.88
2019-03-11T16:58:35.526Z,3.85
2019-03-11T17:01:40.916Z,3.92
2019-03-11T17:04:46.204Z,3.93
2019-03-11T17:07:51.539Z,3.99
2019-03-11T17:10:58.067Z,4.01
2019-03-11T17:14:03.367Z,4.04
2019-03-11T17:17:10.963Z,4.08
2019-03-11T17:20:16.527Z,4.12
2019-03-11T17:23:23.166Z,4.20
2019-03-11T17:26:28.487Z,4.27
2019-03-11T17:29:33.721Z,4.22
2019-03-11T17:32:39.100Z,4.18
2019-03-11T17:35:44.442Z,4.19
2019-03-11T17:38:49.699Z,4.19
2019-03-11T17:41:54.951Z,4.21
2019-03-11T17:45:00.365Z,4.19
2019-03-11T17:48:05.616Z,4.22
2019-03-11T17:51:10.931Z,4.24
2019-03-11T17:54:17.287Z,4.27
2019-03-11T17:57:22.547Z,4.27
2019-03-11T18:00:29.528Z,4.34
2019-03-11T18:03:38.027Z,4.37
2019-03-11T18:06:52.311Z,4.35
2019-03-11T18:09:59.502Z,4.34
2019-03-11T18:13:11.448Z,4.34
2019-03-11T18:16:23.029Z,4.34
2019-03-11T18:19:46.682Z,4.33
2019-03-11T18:22:54.405Z,4.31
2019-03-11T18:25:59.783Z,4.33
2019-03-11T18:29:06.000Z,4.33
2019-03-11T18:32:11.783Z,4.35
2019-03-11T18:35:17.132Z,4.37
2019-03-11T18:38:23.458Z,4.35
2019-03-11T18:41:32.606Z,4.29
2019-03-11T18:44:39.688Z,4.26
2019-03-11T18:47:46.946Z,4.35
2019-03-11T18:50:55.100Z,4.27
2019-03-11T18:54:01.824Z,4.21
2019-03-11T18:57:15.809Z,4.12
2019-03-11T19:00:23.961Z,4.00
2019-03-11T19:03:29.370Z,3.99
2019-03-11T19:06:34.728Z,4.05
2019-03-11T19:09:40.009Z,4.06
2019-03-11T19:12:46.022Z,4.09
2019-03-11T19:16:14.416Z,4.01
2019-03-11T19:19:21.612Z,4.06
2019-03-11T19:22:28.391Z,4.04
2019-03-11T19:25:33.752Z,4.00
2019-03-11T19:28:42.770Z,3.95
2019-03-11T19:31:53.958Z,3.99
2019-03-11T19:34:59.876Z,4.03
2019-03-11T19:38:10.242Z,4.04
2019-03-11T19:41:20.950Z,4.05
2019-03-11T19:44:23.319Z,4.06
2019-03-11T19:47:30.210Z,4.07
2019-03-11T19:50:37.293Z,4.06
2019-03-11T19:53:42.776Z,4.12
2019-03-11T19:56:48.565Z,4.12
2019-03-11T19:59:54.568Z,4.08
2019-03-11T20:03:00.724Z,4.13
2019-03-11T20:06:06.390Z,4.09
2019-03-11T20:09:14.492Z,4.13
2019-03-11T20:12:22.649Z,4.14
2019-03-11T20:15:28.336Z,4.13
2019-03-11T20:18:33.746Z,4.13
2019-03-11T20:21:39.511Z,4.05
2019-03-11T20:24:44.890Z,4.07
2019-03-11T20:27:50.280Z,4.09
2019-03-11T20:30:55.776Z,4.03
2019-03-11T20:34:01.341Z,4.02
2019-03-11T20:37:06.810Z,4.01
2019-03-11T20:40:13.042Z,4.05
2019-03-11T20:43:18.499Z,4.16
2019-03-11T20:46:23.852Z,4.17
2019-03-11T20:49:29.197Z,4.15
2019-03-11T20:52:34.562Z,4.18
2019-03-11T20:55:39.882Z,4.14
2019-03-11T20:58:45.221Z,4.14
2019-03-11T21:01:50.627Z,4.19
2019-03-11T21:04:55.921Z,4.10
2019-03-11T21:08:01.281Z,4.01
2019-03-11T21:11:06.874Z,3.90
2019-03-11T21:14:18.624Z,3.77
2019-03-11T21:17:26.922Z,3.75
2019-03-11T21:20:30.836Z,3.82
2019-03-11T21:23:36.149Z,3.80
2019-03-11T21:26:41.576Z,3.85
2019-03-11T21:29:46.870Z,3.91
2019-03-11T21:32:52.323Z,4.02
2019-03-11T21:35:57.650Z,4.04
2019-03-11T21:39:03.101Z,4.01
2019-03-11T21:42:10.081Z,4.06
2019-03-11T21:45:16.430Z,4.04
2019-03-11T21:48:21.810Z,4.08
2019-03-11T21:51:28.676Z,4.07
2019-03-11T21:54:41.322Z,4.00
2019-03-11T21:57:46.653Z,4.14
2019-03-11T22:00:51.917Z,4.18
2019-03-11T22:03:57.180Z,4.17
2019-03-11T22:07:02.419Z,4.31
2019-03-11T22:10:08.378Z,4.30
2019-03-11T22:13:13.633Z,4.28
2019-03-11T22:16:18.909Z,4.30
2019-03-11T22:19:24.242Z,4.28
2019-03-11T22:22:29.514Z,4.23
2019-03-11T22:25:34.780Z,4.07
2019-03-11T22:28:40.145Z,3.89
2019-03-11T22:31:45.455Z,3.72
2019-03-11T22:34:52.312Z,3.61
2019-03-11T22:37:57.593Z,3.45
2019-03-11T22:41:02.880Z,3.62
2019-03-11T22:44:08.120Z,3.54
2019-03-11T22:47:13.955Z,3.53
2019-03-11T22:50:19.544Z,3.55
2019-03-11T22:53:24.844Z,3.61
2019-03-11T22:56:30.128Z,3.85
2019-03-11T22:59:35.352Z,3.93
2019-03-11T23:02:41.105Z,3.97
2019-03-11T23:05:57.720Z,3.94
2019-03-11T23:08:53.370Z,3.88
2019-03-11T23:11:58.642Z,3.95
2019-03-11T23:15:03.938Z,3.93
2019-03-11T23:18:09.235Z,3.91
2019-03-11T23:21:14.483Z,3.92
2019-03-11T23:24:20.094Z,3.86
2019-03-11T23:27:25.328Z,3.86
2019-03-11T23:30:31.622Z,3.82
2019-03-11T23:33:36.917Z,3.79
2019-03-11T23:36:43.588Z,3.77
2019-03-11T23:39:48.905Z,3.75
2019-03-11T23:42:54.268Z,3.79
2019-03-11T23:45:59.595Z,3.82
2019-03-11T23:49:04.946Z,3.87
2019-03-11T23:52:10.234Z,3.85
2019-03-11T23:55:15.587Z,3.89
2019-03-11T23:58:20.892Z,3.92
